createdAt,value
2018-08-23T06:53:01.093Z,22.90
2018-08-23T06:55:33.851Z,23.10
2018-08-23T06:58:03.668Z,23.20
2018-08-23T07:00:32.519Z,23.40
2018-08-23T07:03:00.902Z,23.50
2018-08-23T07:05:29.289Z,23.60
2018-08-23T07:07:57.690Z,23.70
2018-08-23T07:10:26.100Z,23.90
2018-08-23T07:12:56.479Z,24.00
2018-08-23T07:15:25.243Z,24.10
2018-08-23T07:17:53.585Z,24.10
2018-08-23T07:20:21.944Z,24.20
2018-08-23T07:22:50.319Z,24.30
2018-08-23T07:25:19.498Z,24.40
2018-08-23T07:27:48.014Z,24.50
2018-08-23T07:30:18.352Z,24.60
2018-08-23T07:32:48.014Z,24.70
2018-08-23T07:35:17.787Z,24.80
2018-08-23T07:37:49.831Z,24.90
2018-08-23T07:40:21.529Z,25.00
2018-08-23T07:42:51.301Z,25.10
2018-08-23T07:45:19.821Z,25.20
2018-08-23T07:47:52.560Z,25.30
2018-08-23T07:50:21.310Z,25.40
2018-08-23T07:52:54.153Z,25.50
2018-08-23T07:55:27.164Z,25.60
2018-08-23T07:57:55.630Z,25.60
2018-08-23T08:00:31.784Z,25.70
2018-08-23T08:03:00.190Z,25.90
2018-08-23T08:05:29.913Z,26.00
2018-08-23T08:07:58.238Z,26.20
2018-08-23T08:10:31.735Z,26.40
2018-08-23T08:13:00.268Z,26.50
2018-08-23T08:15:28.648Z,26.50
2018-08-23T08:18:06.314Z,26.60
2018-08-23T08:20:34.832Z,26.80
2018-08-23T08:23:03.274Z,26.90
2018-08-23T08:25:33.208Z,27.00
2018-08-23T08:28:01.629Z,27.20
2018-08-23T08:30:41.327Z,27.30
2018-08-23T08:33:11.446Z,27.30
2018-08-23T08:35:42.204Z,27.30
2018-08-23T08:38:10.841Z,27.50
2018-08-23T08:40:39.220Z,27.60
2018-08-23T08:43:07.546Z,27.70
2018-08-23T08:45:35.878Z,28.00
2018-08-23T08:48:17.878Z,28.10
2018-08-23T08:51:01.614Z,28.30
2018-08-23T08:53:31.006Z,28.40
2018-08-23T08:56:00.742Z,28.60
2018-08-23T08:58:29.242Z,28.70
2018-08-23T09:00:57.570Z,28.90
2018-08-23T09:03:30.443Z,29.00
2018-08-23T09:05:59.467Z,29.10
2018-08-23T09:08:28.044Z,29.10
2018-08-23T09:10:57.029Z,29.20
2018-08-23T09:13:30.626Z,29.10
2018-08-23T09:16:01.351Z,29.20
2018-08-23T09:18:29.765Z,29.40
2018-08-23T09:20:58.306Z,29.40
2018-08-23T09:23:26.836Z,29.50
2018-08-23T09:25:57.974Z,29.40
2018-08-23T09:28:27.668Z,29.40
2018-08-23T09:30:56.270Z,29.50
2018-08-23T09:33:26.076Z,29.50
2018-08-23T09:35:55.162Z,29.70
2018-08-23T09:38:23.545Z,29.70
2018-08-23T09:40:51.846Z,29.80
2018-08-23T09:43:20.712Z,29.80
2018-08-23T09:45:49.342Z,29.90
2018-08-23T09:48:17.675Z,29.80
2018-08-23T09:50:46.148Z,29.90
2018-08-23T09:53:19.934Z,29.80
2018-08-23T09:55:48.789Z,29.90
2018-08-23T09:58:25.195Z,30.00
2018-08-23T10:00:59.576Z,30.00
2018-08-23T10:03:34.285Z,30.00
2018-08-23T10:06:08.497Z,30.10
2018-08-23T10:08:42.461Z,30.20
2018-08-23T10:11:19.847Z,30.30
2018-08-23T10:13:53.585Z,30.50
2018-08-23T10:16:27.352Z,30.40
2018-08-23T10:19:05.863Z,30.40
2018-08-23T10:21:39.790Z,30.30
2018-08-23T10:24:17.239Z,30.40
2018-08-23T10:26:45.788Z,30.40
2018-08-23T10:29:14.112Z,30.40
2018-08-23T10:31:42.422Z,30.40
2018-08-23T10:34:10.725Z,30.50
2018-08-23T10:36:39.229Z,30.60
2018-08-23T10:39:09.213Z,30.60
2018-08-23T10:41:37.569Z,30.70
2018-08-23T10:44:06.102Z,30.80
2018-08-23T10:46:40.043Z,30.80
2018-08-23T10:49:08.507Z,30.90
2018-08-23T10:51:36.925Z,30.90
2018-08-23T10:54:05.306Z,30.90
2018-08-23T10:56:33.710Z,31.00
2018-08-23T10:59:02.175Z,31.00
2018-08-23T11:01:30.543Z,30.90
2018-08-23T11:04:04.202Z,30.90
2018-08-23T11:06:32.572Z,30.90
2018-08-23T11:09:06.294Z,31.10
2018-08-23T11:11:36.045Z,31.10
2018-08-23T11:14:09.877Z,31.10
2018-08-23T11:16:43.853Z,31.10
2018-08-23T11:19:17.629Z,31.10
2018-08-23T11:21:46.131Z,31.20
2018-08-23T11:24:15.120Z,31.30
2018-08-23T11:26:43.504Z,31.20
2018-08-23T11:29:12.637Z,31.30
2018-08-23T11:31:41.081Z,31.30
2018-08-23T11:34:09.458Z,31.40
2018-08-23T11:36:40.805Z,31.40
2018-08-23T11:39:09.493Z,31.40
2018-08-23T11:41:37.926Z,31.30
2018-08-23T11:44:06.413Z,31.40
2018-08-23T11:46:35.019Z,31.40
2018-08-23T11:49:04.650Z,31.40
2018-08-23T11:51:33.069Z,31.50
2018-08-23T11:54:01.617Z,31.50
2018-08-23T11:56:30.731Z,31.50
2018-08-23T11:58:59.118Z,31.60
2018-08-23T12:01:27.596Z,31.60
2018-08-23T12:03:55.999Z,31.80
2018-08-23T12:06:24.500Z,32.10
2018-08-23T12:08:52.943Z,32.20
2018-08-23T12:11:21.699Z,32.30
2018-08-23T12:13:50.917Z,32.40
2018-08-23T12:16:19.643Z,32.50
2018-08-23T12:18:48.109Z,32.60
2018-08-23T12:21:16.561Z,32.60
2018-08-23T12:23:45.016Z,32.70
2018-08-23T12:26:13.618Z,33.20
2018-08-23T12:28:47.443Z,33.70
2018-08-23T12:31:15.835Z,34.40
2018-08-23T12:33:45.564Z,35.30
2018-08-23T12:36:18.362Z,35.80
2018-08-23T12:38:52.279Z,36.70
2018-08-23T12:41:25.951Z,37.10
2018-08-23T12:43:55.745Z,36.60
2018-08-23T12:46:24.173Z,36.20
2018-08-23T12:48:58.164Z,36.20
2018-08-23T12:51:26.567Z,36.40
2018-08-23T12:53:54.935Z,36.50
2018-08-23T12:56:23.313Z,36.30
2018-08-23T12:58:51.748Z,36.30
2018-08-23T13:01:20.305Z,36.00
2018-08-23T13:03:48.749Z,35.60
2018-08-23T13:06:17.196Z,35.40
2018-08-23T13:08:45.555Z,36.40
2018-08-23T13:11:14.149Z,36.40
2018-08-23T13:13:42.659Z,36.60
2018-08-23T13:16:11.899Z,36.80
2018-08-23T13:18:40.323Z,36.30
2018-08-23T13:21:09.641Z,36.20
2018-08-23T13:23:42.251Z,36.30
2018-08-23T13:26:10.651Z,36.20
2018-08-23T13:28:38.962Z,37.50
2018-08-23T13:31:07.565Z,38.40
2018-08-23T13:33:36.087Z,39.00
2018-08-23T13:36:04.545Z,40.20
2018-08-23T13:38:32.974Z,41.50
2018-08-23T13:41:01.336Z,42.70
2018-08-23T13:43:29.818Z,44.00
2018-08-23T13:45:58.712Z,43.70
2018-08-23T13:48:27.169Z,42.20
2018-08-23T13:50:56.211Z,39.40
2018-08-23T13:53:24.620Z,38.00
2018-08-23T13:55:54.927Z,38.40
2018-08-23T13:58:23.355Z,38.90
2018-08-23T14:00:51.781Z,39.50
2018-08-23T14:03:20.236Z,41.00
2018-08-23T14:05:48.692Z,41.90
2018-08-23T14:08:17.291Z,41.90
2018-08-23T14:10:45.905Z,42.10
2018-08-23T14:13:14.374Z,41.90
2018-08-23T14:15:48.152Z,42.00
2018-08-23T14:18:16.487Z,41.60
2018-08-23T14:20:44.866Z,42.30
2018-08-23T14:23:13.377Z,42.40
2018-08-23T14:25:41.867Z,42.40
2018-08-23T14:28:10.358Z,42.90
2018-08-23T14:30:39.951Z,43.00
2018-08-23T14:33:08.996Z,42.50
2018-08-23T14:35:38.751Z,42.20
2018-08-23T14:38:07.189Z,42.00
2018-08-23T14:40:35.634Z,42.80
2018-08-23T14:43:04.084Z,43.10
2018-08-23T14:45:33.754Z,42.30
2018-08-23T14:48:07.470Z,41.60
2018-08-23T14:50:36.584Z,41.90
2018-08-23T14:53:05.972Z,42.30
2018-08-23T14:55:39.888Z,42.60
2018-08-23T14:58:09.063Z,42.00
2018-08-23T15:00:37.458Z,40.80
2018-08-23T15:03:06.076Z,39.10
2018-08-23T15:05:34.551Z,39.60
2018-08-23T15:08:02.933Z,40.40
2018-08-23T15:10:31.375Z,40.80
2018-08-23T15:13:00.494Z,41.90
2018-08-23T15:15:34.279Z,41.30
2018-08-23T15:18:02.566Z,40.10
2018-08-23T15:20:31.060Z,40.90
2018-08-23T15:22:59.433Z,42.20
2018-08-23T15:25:27.815Z,43.00
2018-08-23T15:27:56.215Z,43.60
2018-08-23T15:30:24.612Z,43.70
2018-08-23T15:32:53.080Z,42.90
2018-08-23T15:35:21.409Z,42.90
2018-08-23T15:37:49.770Z,43.00
2018-08-23T15:40:18.163Z,41.90
2018-08-23T15:42:46.648Z,41.50
2018-08-23T15:45:15.019Z,41.30
2018-08-23T15:47:43.454Z,41.40
2018-08-23T15:50:11.997Z,41.50
2018-08-23T15:52:40.376Z,41.90
2018-08-23T15:55:08.908Z,41.70
2018-08-23T15:57:37.558Z,41.80
2018-08-23T16:00:06.570Z,42.20
2018-08-23T16:02:34.989Z,42.00
2018-08-23T16:05:03.369Z,40.70
2018-08-23T16:07:31.787Z,39.90
2018-08-23T16:10:00.173Z,38.90
2018-08-23T16:12:28.631Z,37.80
2018-08-23T16:14:57.946Z,37.10
2018-08-23T16:17:38.597Z,36.10
2018-08-23T16:20:12.324Z,35.60
2018-08-23T16:22:40.726Z,35.00
2018-08-23T16:25:09.343Z,34.70
2018-08-23T16:27:37.792Z,34.50
2018-08-23T16:30:07.073Z,34.10
2018-08-23T16:32:36.265Z,34.00
2018-08-23T16:35:04.652Z,33.80
2018-08-23T16:37:33.741Z,33.50
2018-08-23T16:40:02.424Z,33.40
2018-08-23T16:42:31.559Z,33.30
2018-08-23T16:45:00.232Z,33.40
2018-08-23T16:47:29.041Z,33.20
2018-08-23T16:50:00.128Z,33.10
2018-08-23T16:52:28.521Z,33.10
2018-08-23T16:54:56.959Z,33.10
2018-08-23T16:57:25.463Z,33.00
2018-08-23T16:59:53.762Z,33.00
2018-08-23T17:02:22.197Z,32.90
2018-08-23T17:04:50.626Z,32.80
2018-08-23T17:07:19.101Z,32.70
2018-08-23T17:09:47.440Z,32.70
2018-08-23T17:12:15.787Z,32.70
2018-08-23T17:14:44.182Z,32.60
2018-08-23T17:17:17.883Z,32.40
2018-08-23T17:19:47.170Z,32.30
2018-08-23T17:22:15.535Z,32.10
2018-08-23T17:24:44.118Z,32.00
2018-08-23T17:27:12.383Z,31.90
2018-08-23T17:29:41.661Z,31.80
2018-08-23T17:32:10.016Z,31.70
2018-08-23T17:34:38.416Z,31.60
2018-08-23T17:37:06.817Z,31.60
2018-08-23T17:39:35.155Z,31.50
2018-08-23T17:42:03.689Z,31.50
2018-08-23T17:44:32.082Z,31.40
2018-08-23T17:47:01.882Z,31.30
2018-08-23T17:49:36.703Z,31.30
2018-08-23T17:52:05.418Z,31.20
2018-08-23T17:54:34.514Z,31.10
2018-08-23T17:57:02.801Z,31.00
2018-08-23T17:59:31.275Z,30.90
2018-08-23T18:01:59.558Z,30.90
2018-08-23T18:04:27.942Z,30.80
2018-08-23T18:06:56.764Z,30.70
2018-08-23T18:09:25.094Z,30.60
2018-08-23T18:11:53.422Z,30.40
2018-08-23T18:14:21.800Z,30.10
2018-08-23T18:16:55.516Z,29.50
2018-08-23T18:19:23.897Z,29.20
2018-08-23T18:21:52.215Z,28.90
2018-08-23T18:24:20.569Z,28.70
2018-08-23T18:26:48.913Z,28.50
2018-08-23T18:29:18.215Z,28.40
2018-08-23T18:31:46.554Z,28.40
2018-08-23T18:34:14.903Z,28.40
2018-08-23T18:36:43.251Z,28.40
2018-08-23T18:39:11.879Z,28.30
2018-08-23T18:41:40.237Z,28.30
2018-08-23T18:44:08.650Z,28.20
2018-08-23T18:46:37.211Z,28.30
2018-08-23T18:49:05.629Z,28.30
2018-08-23T18:51:33.999Z,28.30
2018-08-23T18:54:02.481Z,28.30
2018-08-23T18:56:31.247Z,28.30
2018-08-23T18:58:59.838Z,28.20
2018-08-23T19:01:28.393Z,28.10
2018-08-23T19:03:56.869Z,28.00
2018-08-23T19:06:29.453Z,27.70
2018-08-23T19:08:57.956Z,27.40
2018-08-23T19:11:26.780Z,27.10
2018-08-23T19:13:55.127Z,26.70
2018-08-23T19:16:29.167Z,26.50
2018-08-23T19:18:57.733Z,26.40
2018-08-23T19:21:26.947Z,26.20
2018-08-23T19:23:55.368Z,26.10
2018-08-23T19:26:23.837Z,26.00
2018-08-23T19:28:52.340Z,26.00
2018-08-23T19:31:20.762Z,26.10
2018-08-23T19:33:49.287Z,26.10
2018-08-23T19:36:17.685Z,26.10
2018-08-23T19:38:46.006Z,26.10
2018-08-23T19:41:15.722Z,26.10
2018-08-23T19:43:44.145Z,26.10
2018-08-23T19:46:18.114Z,26.10
2018-08-23T19:48:48.130Z,26.10
2018-08-23T19:51:16.453Z,26.10
2018-08-23T19:53:45.466Z,26.10
2018-08-23T19:56:13.748Z,26.10
2018-08-23T19:58:42.106Z,26.10
2018-08-23T20:01:10.496Z,26.10
2018-08-23T20:03:38.868Z,26.10
2018-08-23T20:06:07.186Z,26.00
2018-08-23T20:08:35.516Z,26.00
2018-08-23T20:11:03.875Z,26.00
2018-08-23T20:13:32.243Z,26.00
2018-08-23T20:16:00.601Z,26.00
2018-08-23T20:18:28.990Z,26.00
2018-08-23T20:20:57.635Z,26.00
2018-08-23T20:23:26.058Z,26.00
2018-08-23T20:25:54.452Z,26.00
2018-08-23T20:28:22.812Z,25.90
2018-08-23T20:30:51.228Z,25.90
2018-08-23T20:33:19.699Z,25.90
2018-08-23T20:35:48.209Z,25.90
2018-08-23T20:38:16.617Z,25.90
2018-08-23T20:40:45.045Z,26.00
2018-08-23T20:43:14.761Z,26.00
2018-08-23T20:45:43.206Z,25.90
2018-08-23T20:48:11.575Z,25.90
2018-08-23T20:50:39.928Z,25.90
2018-08-23T20:53:08.544Z,25.90
2018-08-23T20:55:36.955Z,25.90
2018-08-23T20:58:05.461Z,25.90
2018-08-23T21:00:33.901Z,25.90
2018-08-23T21:03:02.279Z,25.90
2018-08-23T21:05:30.757Z,25.90
2018-08-23T21:07:59.292Z,25.90
2018-08-23T21:10:27.877Z,25.80
2018-08-23T21:12:57.061Z,25.90
2018-08-23T21:15:25.488Z,25.70
2018-08-23T21:17:53.884Z,25.70
2018-08-23T21:20:22.300Z,25.70
2018-08-23T21:22:50.948Z,25.60
2018-08-23T21:25:19.308Z,25.50
2018-08-23T21:27:47.834Z,25.40
2018-08-23T21:30:16.226Z,25.30
2018-08-23T21:32:44.833Z,25.20
2018-08-23T21:35:13.175Z,25.20
2018-08-23T21:37:42.716Z,25.20
2018-08-23T21:40:11.069Z,25.20
2018-08-23T21:42:39.427Z,25.20
2018-08-23T21:45:07.947Z,25.20
2018-08-23T21:47:36.401Z,25.20
2018-08-23T21:50:05.010Z,25.30
2018-08-23T21:52:33.417Z,25.30
2018-08-23T21:55:01.742Z,25.30
2018-08-23T21:57:30.261Z,25.20
2018-08-23T21:59:58.736Z,25.20
2018-08-23T22:02:27.182Z,25.20
2018-08-23T22:04:56.929Z,25.10
2018-08-23T22:07:25.336Z,25.00
2018-08-23T22:09:54.782Z,25.00
2018-08-23T22:12:24.358Z,25.00
2018-08-23T22:14:53.891Z,24.90
2018-08-23T22:17:22.855Z,24.90
2018-08-23T22:19:52.148Z,24.80
2018-08-23T22:22:20.745Z,24.70
2018-08-23T22:24:49.171Z,24.70
2018-08-23T22:27:18.168Z,24.70
2018-08-23T22:29:46.520Z,24.70
2018-08-23T22:32:15.753Z,24.70
2018-08-23T22:34:44.261Z,24.70
2018-08-23T22:37:13.584Z,24.60
2018-08-23T22:39:42.259Z,24.60
2018-08-23T22:42:10.759Z,24.60
2018-08-23T22:44:39.185Z,24.50
2018-08-23T22:47:07.599Z,24.50
2018-08-23T22:49:36.073Z,24.50
2018-08-23T22:52:04.439Z,24.40
2018-08-23T22:54:32.840Z,24.40
2018-08-23T22:57:01.397Z,24.40
2018-08-23T22:59:29.846Z,24.40
2018-08-23T23:01:58.287Z,24.40
2018-08-23T23:04:26.919Z,24.30
2018-08-23T23:06:56.201Z,24.30
2018-08-23T23:09:24.850Z,24.30
2018-08-23T23:11:53.326Z,24.20
2018-08-23T23:14:21.991Z,24.20
2018-08-23T23:16:57.002Z,24.10
2018-08-23T23:19:25.983Z,24.10
2018-08-23T23:21:54.384Z,24.00
2018-08-23T23:24:28.230Z,24.00
2018-08-23T23:26:57.191Z,23.90
2018-08-23T23:29:25.977Z,23.70
2018-08-23T23:31:54.388Z,23.70
2018-08-23T23:34:22.897Z,23.60
2018-08-23T23:36:51.355Z,23.60
2018-08-23T23:39:20.006Z,23.50
2018-08-23T23:41:49.158Z,23.50
2018-08-23T23:44:17.749Z,23.50
2018-08-23T23:46:46.089Z,23.50
2018-08-23T23:49:14.756Z,23.40
2018-08-23T23:51:43.258Z,23.40
2018-08-23T23:54:11.710Z,23.30
2018-08-23T23:56:40.144Z,23.30
2018-08-23T23:59:08.474Z,23.30
